createdAt,value
2023-05-22T00:00:37.081Z,15.13
2023-05-22T00:01:36.778Z,15.13
2023-05-22T00:02:36.854Z,15.15
2023-05-22T00:03:36.801Z,15.09
2023-05-22T00:04:36.733Z,15.07
2023-05-22T00:05:36.862Z,15.01
2023-05-22T00:06:37.128Z,15.05
2023-05-22T00:07:36.700Z,15.01
2023-05-22T00:08:36.685Z,14.93
2023-05-22T00:09:36.690Z,14.95
2023-05-22T00:10:36.805Z,14.94
2023-05-22T00:11:36.689Z,15.01
2023-05-22T00:12:36.640Z,14.91
2023-05-22T00:13:36.628Z,14.93
2023-05-22T00:14:36.603Z,14.97
2023-05-22T00:15:36.599Z,14.91
2023-05-22T00:16:36.619Z,14.98
2023-05-22T00:17:36.617Z,14.91
2023-05-22T00:18:36.555Z,14.91
2023-05-22T00:19:36.636Z,14.85
2023-05-22T00:20:36.696Z,14.83
2023-05-22T00:21:36.508Z,14.90
2023-05-22T00:22:36.482Z,14.79
2023-05-22T00:23:36.479Z,14.75
2023-05-22T00:24:36.459Z,14.72
2023-05-22T00:25:36.479Z,14.80
2023-05-22T00:26:36.445Z,14.75
2023-05-22T00:27:36.420Z,14.74
2023-05-22T00:28:36.410Z,14.72
2023-05-22T00:29:36.406Z,14.72
2023-05-22T00:30:36.585Z,14.71
2023-05-22T00:31:36.370Z,14.75
2023-05-22T00:32:36.437Z,14.64
2023-05-22T00:33:36.362Z,14.66
2023-05-22T00:34:36.513Z,14.66
2023-05-22T00:35:36.355Z,14.66
2023-05-22T00:36:36.312Z,14.61
2023-05-22T00:37:36.297Z,14.69
2023-05-22T00:38:36.278Z,14.61
2023-05-22T00:39:36.281Z,14.66
2023-05-22T00:40:36.349Z,14.66
2023-05-22T00:41:36.271Z,14.60
2023-05-22T00:42:36.216Z,14.60
2023-05-22T00:43:36.213Z,14.64
2023-05-22T00:44:36.197Z,14.52
2023-05-22T00:45:36.190Z,14.52
2023-05-22T00:46:36.249Z,14.49
2023-05-22T00:47:36.197Z,14.54
2023-05-22T00:48:36.146Z,14.45
2023-05-22T00:49:36.127Z,14.39
2023-05-22T00:50:36.221Z,14.44
2023-05-22T00:51:36.097Z,14.41
2023-05-22T00:52:36.092Z,14.41
2023-05-22T00:53:36.083Z,14.38
2023-05-22T00:54:36.062Z,14.39
2023-05-22T00:55:36.066Z,14.29
2023-05-22T00:56:36.040Z,14.34
2023-05-22T00:57:36.048Z,14.31
2023-05-22T00:58:36.005Z,14.27
2023-05-22T00:59:35.999Z,14.27
2023-05-22T01:00:36.224Z,14.27
2023-05-22T01:01:36.324Z,14.23
2023-05-22T01:02:36.020Z,14.29
2023-05-22T01:03:35.976Z,14.30
2023-05-22T01:04:35.926Z,14.29
2023-05-22T01:05:35.918Z,14.27
2023-05-22T01:06:35.906Z,14.30
2023-05-22T01:07:35.892Z,14.29
2023-05-22T01:08:35.875Z,14.24
2023-05-22T01:09:35.863Z,14.23
2023-05-22T01:10:35.862Z,14.20
2023-05-22T01:11:35.840Z,14.23
2023-05-22T01:12:35.824Z,14.23
2023-05-22T01:13:35.831Z,14.17
2023-05-22T01:14:35.794Z,14.21
2023-05-22T01:15:35.781Z,14.19
2023-05-22T01:16:35.794Z,14.21
2023-05-22T01:17:36.163Z,14.17
2023-05-22T01:18:35.749Z,14.19
2023-05-22T01:19:35.883Z,14.17
2023-05-22T01:20:35.726Z,14.13
2023-05-22T01:21:35.709Z,14.13
2023-05-22T01:22:35.689Z,14.13
2023-05-22T01:23:35.685Z,14.11
2023-05-22T01:24:35.665Z,14.12
2023-05-22T01:25:35.675Z,14.06
2023-05-22T01:26:35.635Z,14.08
2023-05-22T01:27:35.627Z,14.06
2023-05-22T01:28:35.610Z,14.02
2023-05-22T01:29:35.620Z,14.04
2023-05-22T01:30:35.587Z,14.02
2023-05-22T01:31:35.572Z,14.05
2023-05-22T01:32:35.626Z,14.02
2023-05-22T01:33:35.651Z,13.99
2023-05-22T01:34:35.552Z,13.98
2023-05-22T01:35:35.526Z,14.01
2023-05-22T01:36:35.508Z,14.02
2023-05-22T01:37:35.495Z,14.02
2023-05-22T01:38:35.495Z,13.94
2023-05-22T01:39:35.477Z,13.94
2023-05-22T01:40:35.454Z,13.98
2023-05-22T01:41:35.450Z,13.96
2023-05-22T01:42:35.427Z,13.91
2023-05-22T01:43:35.434Z,13.93
2023-05-22T01:44:35.410Z,13.88
2023-05-22T01:45:35.466Z,13.93
2023-05-22T01:46:35.379Z,13.91
2023-05-22T01:47:35.403Z,13.88
2023-05-22T01:48:35.358Z,13.83
2023-05-22T01:49:35.336Z,13.83
2023-05-22T01:50:35.326Z,13.90
2023-05-22T01:51:35.314Z,13.88
2023-05-22T01:52:35.325Z,13.87
2023-05-22T01:53:35.289Z,13.84
2023-05-22T01:54:35.322Z,13.91
2023-05-22T01:55:35.349Z,13.91
2023-05-22T01:56:35.252Z,13.88
2023-05-22T01:57:35.241Z,13.90
2023-05-22T01:58:35.225Z,13.88
2023-05-22T01:59:35.214Z,13.86
2023-05-22T02:00:35.196Z,13.86
2023-05-22T02:01:35.255Z,13.88
2023-05-22T02:02:35.208Z,13.79
2023-05-22T02:03:35.184Z,13.81
2023-05-22T02:04:35.135Z,13.86
2023-05-22T02:05:35.133Z,13.83
2023-05-22T02:06:35.109Z,13.81
2023-05-22T02:07:35.098Z,13.87
2023-05-22T02:08:35.086Z,13.79
2023-05-22T02:09:35.074Z,13.76
2023-05-22T02:10:35.061Z,13.86
2023-05-22T02:11:35.051Z,13.79
2023-05-22T02:12:35.037Z,13.76
2023-05-22T02:13:35.025Z,13.84
2023-05-22T02:14:35.019Z,13.79
2023-05-22T02:15:35.039Z,13.76
2023-05-22T02:16:34.978Z,13.80
2023-05-22T02:17:35.022Z,13.86
2023-05-22T02:18:34.952Z,13.81
2023-05-22T02:19:35.013Z,13.81
2023-05-22T02:20:34.929Z,13.83
2023-05-22T02:21:34.970Z,13.76
2023-05-22T02:22:34.906Z,13.83
2023-05-22T02:23:34.894Z,13.87
2023-05-22T02:24:34.888Z,13.81
2023-05-22T02:25:34.877Z,13.81
2023-05-22T02:26:35.054Z,13.81
2023-05-22T02:27:34.839Z,13.80
2023-05-22T02:28:34.825Z,13.73
2023-05-22T02:29:34.811Z,13.80
2023-05-22T02:30:34.810Z,13.75
2023-05-22T02:31:34.819Z,13.76
2023-05-22T02:32:34.890Z,13.71
2023-05-22T02:33:34.981Z,13.79
2023-05-22T02:34:34.754Z,13.72
2023-05-22T02:35:34.739Z,13.69
2023-05-22T02:36:34.736Z,13.73
2023-05-22T02:37:34.717Z,13.75
2023-05-22T02:38:34.696Z,13.76
2023-05-22T02:39:34.695Z,13.75
2023-05-22T02:40:34.672Z,13.69
2023-05-22T02:41:34.664Z,13.72
2023-05-22T02:42:34.643Z,13.65
2023-05-22T02:43:34.628Z,13.71
2023-05-22T02:44:34.616Z,13.71
2023-05-22T02:45:34.614Z,13.75
2023-05-22T02:46:34.647Z,13.66
2023-05-22T02:47:34.626Z,13.66
2023-05-22T02:48:34.564Z,13.71
2023-05-22T02:49:34.581Z,13.71
2023-05-22T02:50:34.564Z,13.75
2023-05-22T02:51:34.520Z,13.68
2023-05-22T02:52:34.512Z,13.69
2023-05-22T02:53:34.500Z,13.75
2023-05-22T02:54:34.484Z,13.71
2023-05-22T02:55:34.467Z,13.80
2023-05-22T02:56:34.458Z,13.71
2023-05-22T02:57:34.442Z,13.79
2023-05-22T02:58:34.427Z,13.69
2023-05-22T02:59:34.424Z,13.71
2023-05-22T03:00:34.410Z,13.72
2023-05-22T03:01:34.453Z,13.68
2023-05-22T03:02:34.571Z,13.75
2023-05-22T03:03:34.508Z,13.71
2023-05-22T03:04:34.355Z,13.69
2023-05-22T03:05:34.376Z,13.71
2023-05-22T03:06:34.360Z,13.72
2023-05-22T03:07:34.310Z,13.71
2023-05-22T03:08:34.301Z,13.69
2023-05-22T03:09:34.312Z,13.75
2023-05-22T03:10:34.265Z,13.73
2023-05-22T03:11:34.480Z,13.72
2023-05-22T03:12:34.244Z,13.73
2023-05-22T03:13:34.236Z,13.80
2023-05-22T03:14:34.227Z,13.72
2023-05-22T03:15:34.217Z,13.73
2023-05-22T03:16:34.277Z,13.69
2023-05-22T03:17:34.191Z,13.75
2023-05-22T03:18:34.173Z,13.81
2023-05-22T03:19:34.192Z,13.79
2023-05-22T03:20:34.140Z,13.84
2023-05-22T03:21:34.156Z,13.81
2023-05-22T03:22:34.109Z,13.86
2023-05-22T03:23:34.103Z,13.84
2023-05-22T03:24:34.289Z,13.86
2023-05-22T03:25:34.077Z,13.88
2023-05-22T03:26:34.069Z,13.90
2023-05-22T03:27:34.046Z,13.87
2023-05-22T03:28:34.065Z,13.90
2023-05-22T03:29:34.037Z,13.83
2023-05-22T03:30:34.024Z,13.90
2023-05-22T03:31:34.011Z,13.83
2023-05-22T03:32:34.051Z,13.73
2023-05-22T03:33:34.022Z,13.86
2023-05-22T03:34:33.966Z,13.86
2023-05-22T03:35:33.964Z,13.86
2023-05-22T03:36:34.039Z,13.80
2023-05-22T03:37:33.943Z,13.87
2023-05-22T03:38:33.907Z,13.88
2023-05-22T03:39:33.893Z,13.88
2023-05-22T03:40:33.877Z,13.87
2023-05-22T03:41:33.879Z,13.93
2023-05-22T03:42:33.861Z,13.87
2023-05-22T03:43:33.840Z,13.91
2023-05-22T03:44:33.845Z,13.96
2023-05-22T03:45:33.855Z,13.98
2023-05-22T03:46:33.840Z,13.98
2023-05-22T03:47:33.829Z,14.01
2023-05-22T03:48:33.793Z,13.96
2023-05-22T03:49:33.777Z,13.94
2023-05-22T03:50:33.747Z,13.96
2023-05-22T03:51:33.750Z,13.94
2023-05-22T03:52:33.729Z,13.96
2023-05-22T03:53:33.736Z,13.98
2023-05-22T03:54:33.706Z,13.99
2023-05-22T03:55:33.697Z,14.05
2023-05-22T03:56:33.696Z,14.04
2023-05-22T03:57:33.663Z,14.04
2023-05-22T03:58:33.643Z,14.06
2023-05-22T03:59:33.638Z,14.06
2023-05-22T04:00:33.621Z,14.02
2023-05-22T04:01:33.613Z,14.09
2023-05-22T04:02:33.650Z,14.04
2023-05-22T04:03:33.644Z,13.99
2023-05-22T04:04:33.824Z,14.04
2023-05-22T04:05:33.630Z,14.11
2023-05-22T04:06:33.536Z,14.05
2023-05-22T04:07:33.525Z,14.08
2023-05-22T04:08:33.508Z,14.02
2023-05-22T04:09:33.528Z,14.06
2023-05-22T04:10:33.492Z,14.09
2023-05-22T04:11:33.473Z,14.09
2023-05-22T04:12:33.459Z,14.06
2023-05-22T04:13:33.453Z,14.02
2023-05-22T04:14:33.434Z,14.05
2023-05-22T04:15:33.424Z,14.05
2023-05-22T04:16:33.443Z,14.08
2023-05-22T04:17:33.663Z,14.05
2023-05-22T04:18:33.376Z,14.05
2023-05-22T04:19:33.424Z,14.04
2023-05-22T04:20:33.350Z,14.04
2023-05-22T04:21:33.339Z,14.08
2023-05-22T04:22:33.337Z,14.16
2023-05-22T04:23:33.317Z,14.06
2023-05-22T04:24:33.296Z,14.05
2023-05-22T04:25:33.306Z,14.05
2023-05-22T04:26:33.282Z,14.09
2023-05-22T04:27:33.459Z,14.09
2023-05-22T04:28:33.252Z,14.17
2023-05-22T04:29:33.244Z,14.12
2023-05-22T04:30:33.218Z,14.19
2023-05-22T04:31:33.227Z,14.17
2023-05-22T04:32:33.232Z,14.17
2023-05-22T04:33:33.173Z,14.26
2023-05-22T04:34:33.164Z,14.20
2023-05-22T04:35:33.165Z,14.27
2023-05-22T04:36:33.145Z,14.26
2023-05-22T04:37:33.130Z,14.34
2023-05-22T04:38:33.115Z,14.31
2023-05-22T04:39:33.102Z,14.29
2023-05-22T04:40:33.089Z,14.38
2023-05-22T04:41:33.094Z,14.44
2023-05-22T04:42:33.058Z,14.45
2023-05-22T04:43:33.039Z,14.49
2023-05-22T04:44:33.030Z,14.52
2023-05-22T04:45:33.153Z,14.49
2023-05-22T04:46:33.060Z,14.59
2023-05-22T04:47:33.043Z,14.61
2023-05-22T04:48:32.980Z,14.75
2023-05-22T04:49:32.963Z,14.71
2023-05-22T04:50:33.087Z,14.79
2023-05-22T04:51:32.942Z,14.82
2023-05-22T04:52:32.921Z,14.82
2023-05-22T04:53:33.056Z,14.90
2023-05-22T04:54:32.896Z,14.82
2023-05-22T04:55:32.883Z,14.86
2023-05-22T04:56:36.997Z,14.86
2023-05-22T04:57:32.877Z,14.87
2023-05-22T04:58:32.849Z,14.90
2023-05-22T04:59:32.826Z,14.83
2023-05-22T05:00:32.845Z,14.86
2023-05-22T05:01:33.642Z,14.78
2023-05-22T05:02:32.934Z,14.87
2023-05-22T05:03:32.836Z,14.85
2023-05-22T05:04:32.773Z,14.94
2023-05-22T05:05:32.747Z,14.97
2023-05-22T05:06:32.737Z,14.98
2023-05-22T05:07:32.723Z,14.98
2023-05-22T05:08:32.953Z,15.03
2023-05-22T05:09:32.702Z,15.03
2023-05-22T05:10:32.683Z,15.05
2023-05-22T05:11:32.670Z,15.07
2023-05-22T05:12:32.653Z,15.07
2023-05-22T05:13:32.663Z,15.12
2023-05-22T05:14:32.628Z,15.25
2023-05-22T05:15:32.610Z,15.25
2023-05-22T05:16:32.651Z,15.19
2023-05-22T05:17:32.591Z,15.18
2023-05-22T05:18:32.873Z,15.22
2023-05-22T05:19:34.776Z,15.25
2023-05-22T05:20:32.546Z,15.34
2023-05-22T05:21:32.535Z,15.23
2023-05-22T05:22:32.525Z,15.34
2023-05-22T05:23:32.506Z,15.34
2023-05-22T05:24:32.491Z,15.37
2023-05-22T05:25:32.472Z,15.41
2023-05-22T05:26:32.462Z,15.34
2023-05-22T05:27:32.455Z,15.35
2023-05-22T05:28:32.447Z,15.44
2023-05-22T05:29:32.450Z,15.38
2023-05-22T05:30:32.434Z,15.46
2023-05-22T05:31:32.405Z,15.41
2023-05-22T05:32:32.431Z,15.43
2023-05-22T05:33:32.373Z,15.48
2023-05-22T05:34:32.368Z,15.44
2023-05-22T05:35:32.345Z,15.46
2023-05-22T05:36:32.337Z,15.48
2023-05-22T05:37:32.322Z,15.41
2023-05-22T05:38:32.307Z,15.40
2023-05-22T05:39:32.291Z,15.38
2023-05-22T05:40:32.278Z,15.44
2023-05-22T05:41:32.260Z,15.38
2023-05-22T05:42:32.286Z,15.37
2023-05-22T05:43:32.237Z,15.44
2023-05-22T05:44:32.228Z,15.48
2023-05-22T05:45:32.237Z,15.41
2023-05-22T05:46:32.283Z,15.52
2023-05-22T05:47:32.242Z,15.49
2023-05-22T05:48:32.178Z,15.55
2023-05-22T05:49:34.934Z,15.60
2023-05-22T05:50:32.155Z,15.66
2023-05-22T05:51:32.217Z,15.70
2023-05-22T05:52:32.121Z,15.68
2023-05-22T05:53:32.106Z,15.78
2023-05-22T05:54:32.102Z,15.74
2023-05-22T05:55:33.899Z,15.78
2023-05-22T05:56:32.071Z,15.73
2023-05-22T05:57:32.057Z,15.86
2023-05-22T05:58:32.045Z,15.86
2023-05-22T05:59:32.139Z,15.92
2023-05-22T06:00:32.020Z,15.92
2023-05-22T06:01:32.141Z,15.88
2023-05-22T06:02:32.023Z,15.91
2023-05-22T06:03:32.123Z,16.03
2023-05-22T06:04:31.954Z,16.04
2023-05-22T06:05:31.994Z,16.03
2023-05-22T06:06:31.931Z,16.14
2023-05-22T06:07:31.918Z,16.18
2023-05-22T06:08:31.904Z,16.30
2023-05-22T06:09:31.894Z,16.33
2023-05-22T06:10:31.880Z,16.42
2023-05-22T06:11:31.871Z,16.34
2023-05-22T06:12:32.031Z,16.37
2023-05-22T06:13:31.862Z,16.36
2023-05-22T06:14:31.828Z,16.42
2023-05-22T06:15:31.814Z,16.44
2023-05-22T06:16:31.896Z,16.34
2023-05-22T06:17:31.882Z,16.41
2023-05-22T06:18:31.780Z,16.40
2023-05-22T06:19:31.846Z,16.34
2023-05-22T06:20:31.757Z,16.34
2023-05-22T06:21:31.732Z,16.44
2023-05-22T06:22:31.746Z,16.54
2023-05-22T06:23:31.707Z,16.54
2023-05-22T06:24:31.694Z,16.62
2023-05-22T06:25:31.684Z,16.70
2023-05-22T06:26:32.060Z,16.69
2023-05-22T06:27:31.659Z,16.73
2023-05-22T06:28:31.644Z,16.84
2023-05-22T06:29:31.642Z,16.90
2023-05-22T06:30:43.440Z,16.91
2023-05-22T06:31:32.629Z,17.05
2023-05-22T06:32:31.828Z,17.12
2023-05-22T06:33:31.700Z,17.18
2023-05-22T06:34:31.627Z,17.22
2023-05-22T06:35:31.555Z,17.38
2023-05-22T06:36:31.543Z,17.39
2023-05-22T06:37:31.566Z,17.51
2023-05-22T06:38:31.519Z,17.53
2023-05-22T06:39:32.200Z,17.55
2023-05-22T06:40:31.534Z,17.49
2023-05-22T06:41:31.467Z,17.54
2023-05-22T06:42:31.457Z,17.49
2023-05-22T06:43:31.440Z,17.46
2023-05-22T06:44:31.431Z,17.46
2023-05-22T06:45:31.497Z,17.40
2023-05-22T06:46:31.512Z,17.53
2023-05-22T06:47:31.406Z,17.53
2023-05-22T06:48:31.377Z,17.62
2023-05-22T06:49:31.458Z,17.57
2023-05-22T06:50:31.353Z,17.68
2023-05-22T06:51:31.342Z,17.71
2023-05-22T06:52:31.323Z,17.77
2023-05-22T06:53:31.322Z,17.91
2023-05-22T06:54:31.301Z,17.92
2023-05-22T06:55:31.638Z,18.01
2023-05-22T06:56:31.284Z,18.02
2023-05-22T06:57:31.263Z,18.10
2023-05-22T06:58:31.487Z,18.20
2023-05-22T06:59:31.226Z,18.31
2023-05-22T07:00:31.221Z,18.46
2023-05-22T07:01:31.240Z,18.62
2023-05-22T07:02:31.279Z,18.64
2023-05-22T07:03:31.184Z,18.71
2023-05-22T07:04:31.171Z,18.78
2023-05-22T07:05:31.363Z,18.86
2023-05-22T07:06:31.162Z,18.84
2023-05-22T07:07:31.138Z,18.84
2023-05-22T07:08:31.116Z,18.87
2023-05-22T07:09:31.101Z,18.78
2023-05-22T07:10:31.381Z,18.76
2023-05-22T07:11:31.079Z,18.69
2023-05-22T07:12:31.058Z,18.62
2023-05-22T07:13:31.044Z,18.69
2023-05-22T07:14:31.030Z,18.76
2023-05-22T07:15:31.020Z,18.72
2023-05-22T07:16:31.080Z,18.83
2023-05-22T07:17:31.007Z,18.90
2023-05-22T07:18:30.983Z,18.87
2023-05-22T07:19:31.056Z,18.89
2023-05-22T07:20:30.958Z,18.87
2023-05-22T07:21:30.963Z,18.91
2023-05-22T07:22:30.925Z,19.05
2023-05-22T07:23:30.918Z,19.10
2023-05-22T07:24:30.911Z,19.17
2023-05-22T07:25:30.888Z,19.23
2023-05-22T07:26:30.874Z,19.58
2023-05-22T07:27:30.864Z,19.71
2023-05-22T07:28:30.850Z,19.67
2023-05-22T07:29:30.838Z,19.70
2023-05-22T07:30:30.820Z,19.78
2023-05-22T07:31:30.831Z,19.78
2023-05-22T07:32:30.840Z,19.86
2023-05-22T07:33:30.784Z,20.02
2023-05-22T07:34:30.784Z,20.20
2023-05-22T07:35:30.749Z,20.44
2023-05-22T07:36:30.739Z,20.54
2023-05-22T07:37:30.780Z,20.71
2023-05-22T07:38:31.170Z,21.06
2023-05-22T07:39:30.707Z,21.34
2023-05-22T07:40:30.697Z,21.58
2023-05-22T07:41:30.676Z,21.71
2023-05-22T07:42:30.670Z,21.75
2023-05-22T07:43:30.659Z,21.86
2023-05-22T07:44:30.638Z,21.90
2023-05-22T07:45:30.931Z,21.99
2023-05-22T07:46:30.652Z,22.23
2023-05-22T07:47:30.603Z,22.54
2023-05-22T07:48:30.585Z,22.81
2023-05-22T07:49:30.568Z,22.94
2023-05-22T07:50:30.664Z,23.01
2023-05-22T07:51:30.545Z,23.15
2023-05-22T07:52:30.546Z,23.34
2023-05-22T07:53:30.536Z,23.42
2023-05-22T07:54:30.708Z,23.72
2023-05-22T07:55:30.494Z,23.90
2023-05-22T07:56:30.484Z,24.09
2023-05-22T07:57:30.472Z,24.18
2023-05-22T07:58:30.459Z,24.41
2023-05-22T07:59:30.455Z,24.55
2023-05-22T08:00:30.434Z,24.80
2023-05-22T08:01:30.416Z,25.16
2023-05-22T08:02:30.517Z,25.38
2023-05-22T08:03:30.506Z,25.49
2023-05-22T08:04:30.438Z,25.71
2023-05-22T08:05:30.406Z,25.94
2023-05-22T08:06:30.349Z,25.91
2023-05-22T08:07:30.342Z,25.69
2023-05-22T08:08:31.806Z,25.36
2023-05-22T08:09:30.456Z,24.89
2023-05-22T08:10:46.392Z,24.82
2023-05-22T08:11:31.337Z,24.71
2023-05-22T08:12:30.283Z,24.75
2023-05-22T08:13:30.356Z,24.79
2023-05-22T08:14:30.252Z,24.86
2023-05-22T08:15:30.231Z,24.90
2023-05-22T08:16:30.414Z,24.84
2023-05-22T08:17:30.235Z,24.71
2023-05-22T08:18:30.500Z,24.93
2023-05-22T08:19:30.265Z,25.08
2023-05-22T08:20:30.232Z,25.51
2023-05-22T08:21:30.179Z,25.79
2023-05-22T08:22:30.143Z,26.09
2023-05-22T08:23:30.291Z,26.24
2023-05-22T08:24:30.120Z,26.24
2023-05-22T08:25:30.136Z,26.35
2023-05-22T08:26:31.465Z,26.31
2023-05-22T08:27:30.075Z,26.29
2023-05-22T08:28:30.070Z,26.31
2023-05-22T08:29:30.051Z,26.46
2023-05-22T08:30:30.077Z,26.39
2023-05-22T08:31:30.141Z,26.29
2023-05-22T08:32:31.380Z,26.36
2023-05-22T08:33:30.009Z,26.50
2023-05-22T08:34:30.048Z,26.42
2023-05-22T08:35:29.982Z,26.21
2023-05-22T08:36:29.975Z,26.12
2023-05-22T08:37:29.954Z,26.08
2023-05-22T08:38:29.950Z,25.91
2023-05-22T08:39:29.934Z,25.93
2023-05-22T08:40:29.965Z,25.97
2023-05-22T08:41:30.483Z,25.98
2023-05-22T08:42:29.945Z,26.12
2023-05-22T08:43:29.990Z,26.03
2023-05-22T08:44:29.929Z,26.04
2023-05-22T08:45:29.925Z,26.16
2023-05-22T08:46:30.015Z,26.51
2023-05-22T08:47:29.952Z,26.72
2023-05-22T08:48:29.876Z,26.65
2023-05-22T08:49:29.839Z,26.71
2023-05-22T08:50:29.806Z,26.93
2023-05-22T08:51:29.781Z,27.09
2023-05-22T08:52:29.827Z,27.12
2023-05-22T08:53:29.759Z,26.96
2023-05-22T08:54:29.746Z,27.05
2023-05-22T08:55:29.745Z,27.33
2023-05-22T08:56:29.857Z,27.55
2023-05-22T08:57:29.735Z,27.50
2023-05-22T08:58:29.701Z,27.30
2023-05-22T08:59:29.692Z,27.33
2023-05-22T09:00:29.686Z,27.40
2023-05-22T09:01:29.848Z,27.62
2023-05-22T09:02:29.694Z,27.91
2023-05-22T09:03:29.801Z,28.32
2023-05-22T09:04:29.628Z,28.64
2023-05-22T09:05:29.618Z,29.08
2023-05-22T09:06:29.618Z,29.29
2023-05-22T09:07:29.594Z,29.42
2023-05-22T09:08:29.584Z,29.36
2023-05-22T09:09:29.599Z,29.36
2023-05-22T09:10:29.551Z,29.10
2023-05-22T09:11:29.593Z,28.58
2023-05-22T09:12:29.528Z,27.98
2023-05-22T09:13:29.575Z,27.88
2023-05-22T09:14:29.510Z,28.11
2023-05-22T09:15:29.501Z,28.32
2023-05-22T09:16:29.538Z,28.51
2023-05-22T09:17:29.490Z,28.61
2023-05-22T09:18:29.465Z,28.54
2023-05-22T09:19:29.521Z,28.67
2023-05-22T09:20:29.435Z,28.83
2023-05-22T09:21:30.628Z,28.98
2023-05-22T09:22:29.470Z,28.89
2023-05-22T09:23:29.403Z,29.00
2023-05-22T09:24:29.395Z,29.26
2023-05-22T09:25:29.386Z,29.57
2023-05-22T09:26:29.368Z,29.64
2023-05-22T09:27:29.356Z,29.60
2023-05-22T09:28:29.343Z,29.42
2023-05-22T09:29:29.365Z,29.47
2023-05-22T09:30:29.319Z,29.48
2023-05-22T09:31:29.473Z,29.69
2023-05-22T09:32:29.331Z,29.94
2023-05-22T09:33:29.291Z,29.95
2023-05-22T09:34:29.269Z,29.97
2023-05-22T09:35:29.263Z,29.42
2023-05-22T09:36:29.252Z,29.03
2023-05-22T09:37:29.240Z,28.94
2023-05-22T09:38:29.236Z,29.12
2023-05-22T09:39:29.220Z,29.37
2023-05-22T09:40:29.206Z,29.51
2023-05-22T09:41:29.199Z,29.64
2023-05-22T09:42:29.188Z,29.78
2023-05-22T09:43:29.169Z,29.67
2023-05-22T09:44:29.153Z,29.62
2023-05-22T09:45:29.165Z,29.57
2023-05-22T09:46:29.181Z,29.67
2023-05-22T09:47:29.177Z,29.58
2023-05-22T09:48:29.120Z,29.18
2023-05-22T09:49:29.104Z,29.08
2023-05-22T09:50:29.087Z,29.03
2023-05-22T09:51:29.075Z,28.97
2023-05-22T09:52:29.062Z,28.94
2023-05-22T09:53:29.056Z,28.94
2023-05-22T09:54:29.090Z,28.70
2023-05-22T09:55:29.040Z,28.57
2023-05-22T09:56:38.600Z,28.72
2023-05-22T09:57:30.033Z,28.72
2023-05-22T09:58:28.992Z,28.91
2023-05-22T09:59:28.994Z,29.21
2023-05-22T10:00:28.968Z,29.82
2023-05-22T10:01:29.064Z,30.29
2023-05-22T10:02:29.020Z,30.64
2023-05-22T10:03:28.946Z,30.96
2023-05-22T10:04:28.953Z,31.25
2023-05-22T10:05:28.923Z,31.42
2023-05-22T10:06:28.904Z,31.41
2023-05-22T10:07:28.893Z,31.49
2023-05-22T10:08:28.977Z,31.50
2023-05-22T10:09:28.873Z,31.35
2023-05-22T10:10:28.854Z,31.38
2023-05-22T10:11:28.850Z,31.32
2023-05-22T10:12:29.034Z,31.49
2023-05-22T10:13:28.829Z,31.32
2023-05-22T10:14:29.640Z,30.88
2023-05-22T10:15:28.810Z,30.36
2023-05-22T10:16:28.854Z,29.94
2023-05-22T10:17:28.915Z,29.82
2023-05-22T10:18:28.763Z,30.01
2023-05-22T10:19:28.804Z,30.32
2023-05-22T10:20:28.764Z,30.44
2023-05-22T10:21:28.742Z,30.40
2023-05-22T10:22:28.730Z,30.26
2023-05-22T10:23:28.714Z,30.06
2023-05-22T10:24:28.700Z,30.03
2023-05-22T10:25:28.704Z,30.23
2023-05-22T10:26:28.682Z,30.48
2023-05-22T10:27:28.670Z,30.60
2023-05-22T10:28:28.653Z,30.72
2023-05-22T10:29:28.646Z,30.90
2023-05-22T10:30:28.637Z,30.93
2023-05-22T10:31:28.626Z,30.91
2023-05-22T10:32:28.656Z,30.88
2023-05-22T10:33:28.778Z,31.05
2023-05-22T10:34:28.607Z,31.12
2023-05-22T10:35:28.580Z,31.01
2023-05-22T10:36:28.573Z,30.86
2023-05-22T10:37:28.565Z,30.79
2023-05-22T10:38:28.639Z,30.63
2023-05-22T10:39:28.545Z,30.45
2023-05-22T10:40:28.540Z,30.68
2023-05-22T10:41:28.537Z,30.90
2023-05-22T10:42:28.517Z,30.83
2023-05-22T10:43:28.499Z,30.91
2023-05-22T10:44:28.788Z,30.88
2023-05-22T10:45:28.595Z,30.73
2023-05-22T10:46:28.607Z,30.79
2023-05-22T10:47:28.479Z,30.94
2023-05-22T10:48:28.449Z,31.16
2023-05-22T10:49:28.551Z,31.38
2023-05-22T10:50:28.418Z,31.46
2023-05-22T10:51:28.415Z,31.56
2023-05-22T10:52:28.389Z,31.74
2023-05-22T10:53:28.378Z,31.91
2023-05-22T10:54:28.365Z,31.91
2023-05-22T10:55:28.355Z,32.02
2023-05-22T10:56:28.351Z,32.09
2023-05-22T10:57:28.342Z,32.02
2023-05-22T10:58:28.354Z,31.71
2023-05-22T10:59:28.313Z,31.68
2023-05-22T11:00:28.312Z,31.52
2023-05-22T11:01:28.325Z,31.31
2023-05-22T11:02:28.360Z,31.19
2023-05-22T11:03:28.361Z,31.07
2023-05-22T11:04:28.301Z,31.09
2023-05-22T11:05:28.369Z,31.10
2023-05-22T11:06:28.236Z,31.04
2023-05-22T11:07:28.225Z,31.07
2023-05-22T11:08:28.199Z,31.05
2023-05-22T11:09:28.194Z,31.16
2023-05-22T11:10:28.180Z,31.13
2023-05-22T11:11:28.179Z,31.01
2023-05-22T11:12:28.157Z,30.94
2023-05-22T11:13:29.252Z,30.94
2023-05-22T11:14:28.147Z,30.85
2023-05-22T11:15:28.135Z,30.73
2023-05-22T11:16:28.175Z,30.63
2023-05-22T11:17:28.203Z,30.60
2023-05-22T11:18:28.095Z,30.68
2023-05-22T11:19:28.134Z,30.67
2023-05-22T11:20:28.071Z,30.49
2023-05-22T11:21:28.181Z,30.38
2023-05-22T11:22:28.047Z,30.10
2023-05-22T11:23:28.060Z,30.01
2023-05-22T11:24:28.065Z,29.85
2023-05-22T11:25:28.030Z,29.85
2023-05-22T11:26:28.282Z,29.73
2023-05-22T11:27:28.052Z,29.67
2023-05-22T11:28:27.984Z,29.55
2023-05-22T11:29:27.984Z,29.44
2023-05-22T11:30:27.964Z,29.49
2023-05-22T11:31:27.969Z,29.60
2023-05-22T11:32:27.938Z,29.73
2023-05-22T11:33:27.932Z,29.91
2023-05-22T11:34:28.074Z,30.04
2023-05-22T11:35:27.903Z,30.21
2023-05-22T11:36:27.904Z,30.30
2023-05-22T11:37:28.011Z,30.44
2023-05-22T11:38:27.880Z,30.48
2023-05-22T11:39:27.874Z,30.38
2023-05-22T11:40:27.847Z,30.23
2023-05-22T11:41:27.841Z,30.07
2023-05-22T11:42:27.826Z,30.04
2023-05-22T11:43:27.813Z,29.99
2023-05-22T11:44:27.862Z,30.00
2023-05-22T11:45:27.796Z,30.06
2023-05-22T11:46:27.861Z,30.03
2023-05-22T11:47:27.778Z,29.84
2023-05-22T11:48:27.753Z,29.89
2023-05-22T11:49:27.744Z,29.89
2023-05-22T11:50:40.967Z,29.95
2023-05-22T11:51:28.781Z,30.13
2023-05-22T11:52:27.714Z,30.13
2023-05-22T11:53:27.856Z,30.32
2023-05-22T11:54:27.689Z,30.45
2023-05-22T11:55:27.673Z,30.63
2023-05-22T11:56:27.661Z,30.83
2023-05-22T11:57:27.651Z,30.93
2023-05-22T11:58:27.634Z,30.86
2023-05-22T11:59:27.621Z,30.88
2023-05-22T12:00:27.647Z,30.91
2023-05-22T12:01:27.602Z,30.90
2023-05-22T12:02:27.696Z,30.79
2023-05-22T12:03:27.686Z,30.64
2023-05-22T12:04:27.563Z,30.56
2023-05-22T12:05:27.550Z,30.29
2023-05-22T12:06:27.559Z,30.16
2023-05-22T12:07:27.527Z,30.06
2023-05-22T12:08:27.517Z,29.89
2023-05-22T12:09:27.634Z,29.82
2023-05-22T12:10:27.491Z,29.66
2023-05-22T12:11:27.489Z,29.49
2023-05-22T12:12:27.460Z,29.39
2023-05-22T12:13:27.461Z,29.37
2023-05-22T12:14:27.440Z,29.35
2023-05-22T12:15:27.442Z,29.37
2023-05-22T12:16:27.492Z,29.37
2023-05-22T12:17:27.457Z,29.29
2023-05-22T12:18:27.405Z,29.18
2023-05-22T12:19:27.459Z,29.14
2023-05-22T12:20:27.366Z,28.94
2023-05-22T12:21:27.362Z,28.85
2023-05-22T12:22:27.357Z,28.67
2023-05-22T12:23:27.332Z,28.57
2023-05-22T12:24:27.352Z,28.46
2023-05-22T12:25:27.430Z,28.30
2023-05-22T12:26:27.295Z,28.33
2023-05-22T12:27:27.291Z,28.25
2023-05-22T12:28:27.515Z,28.21
2023-05-22T12:29:27.250Z,28.20
2023-05-22T12:30:27.251Z,28.13
2023-05-22T12:31:27.268Z,28.05
2023-05-22T12:32:27.261Z,27.93
2023-05-22T12:33:27.201Z,27.80
2023-05-22T12:34:27.194Z,27.81
2023-05-22T12:35:27.189Z,27.81
2023-05-22T12:36:27.177Z,27.71
2023-05-22T12:37:27.161Z,27.66
2023-05-22T12:38:27.148Z,27.61
2023-05-22T12:39:27.133Z,27.42
2023-05-22T12:40:27.126Z,27.49
2023-05-22T12:41:27.226Z,27.49
2023-05-22T12:42:27.104Z,27.50
2023-05-22T12:43:27.098Z,27.52
2023-05-22T12:44:27.064Z,27.48
2023-05-22T12:45:27.052Z,27.34
2023-05-22T12:46:27.062Z,27.34
2023-05-22T12:47:27.114Z,27.42
2023-05-22T12:48:27.224Z,27.38
2023-05-22T12:49:27.007Z,27.33
2023-05-22T12:50:27.000Z,27.30
2023-05-22T12:51:27.012Z,27.31
2023-05-22T12:52:26.986Z,27.27